Time;durP1;ratioP1;P1;durP2;ratioP2;P2;SDS_P1;SDS_P2;PMS_P1;PMS_P2;Temp;Humidity;BMP_temperature;BMP_pressure;BME280_temperature;BME280_humidity;BME280_pressure;Samples;Min_cycle;Max_cycle;Signal;HPM_P1;HPM_P2
2022/06/07 00:00:24;;;;;;;0.82;0.80;;;;;;;14.45;100.00;98467.16;5062052;28;20059;-71
2022/06/07 00:02:50;;;;;;;2.05;1.25;;;;;;;14.41;100.00;98469.97;5044213;28;20091;-71
2022/06/07 00:05:16;;;;;;;0.93;0.80;;;;;;;14.43;100.00;98462.84;5046353;28;20248;-71
2022/06/07 00:07:42;;;;;;;0.93;0.85;;;;;;;14.46;100.00;98468.84;5055342;28;20079;-71
2022/06/07 00:10:08;;;;;;;3.20;1.10;;;;;;;14.47;100.00;98467.09;5061649;28;20099;-71
2022/06/07 00:12:34;;;;;;;1.05;0.90;;;;;;;14.44;100.00;98469.84;5063239;28;20028;-71
2022/06/07 00:14:59;;;;;;;4.05;1.10;;;;;;;14.43;100.00;98460.19;5061594;28;20028;-71
2022/06/07 00:17:24;;;;;;;1.38;1.05;;;;;;;14.44;100.00;98468.06;5059438;28;20022;-71
2022/06/07 00:19:50;;;;;;;2.90;1.10;;;;;;;14.37;100.00;98463.06;5043786;28;20025;-71
2022/06/07 00:22:16;;;;;;;1.90;1.40;;;;;;;14.39;100.00;98463.84;5044010;28;20067;-71
2022/06/07 00:24:42;;;;;;;1.70;1.10;;;;;;;14.37;100.00;98463.91;5043696;28;20063;-71
2022/06/07 00:27:08;;;;;;;4.95;1.17;;;;;;;14.35;100.00;98464.88;5044360;28;20096;-71
2022/06/07 00:29:34;;;;;;;1.00;0.88;;;;;;;14.32;100.00;98459.69;5048169;28;20024;-71
2022/06/07 00:32:01;;;;;;;1.42;1.00;;;;;;;14.38;100.00;98459.47;5053968;28;20032;-71
2022/06/07 00:34:27;;;;;;;0.88;0.88;;;;;;;14.41;100.00;98462.00;5045925;28;20036;-71
2022/06/07 00:36:52;;;;;;;2.58;1.20;;;;;;;14.34;100.00;98457.88;5043575;28;20136;-71
2022/06/07 00:39:18;;;;;;;0.80;0.80;;;;;;;14.22;100.00;98458.28;5061519;28;20036;-71
2022/06/07 00:41:43;;;;;;;4.47;1.20;;;;;;;14.25;100.00;98458.22;5050303;28;20190;-71
2022/06/07 00:44:21;;;;;;;1.10;1.00;;;;;;;14.28;100.00;98458.09;5043516;28;20377;-71
2022/06/07 00:47:00;;;;;;;3.72;0.80;;;;;;;14.30;100.00;98453.63;5044581;28;20267;-71
2022/06/07 00:49:28;;;;;;;1.20;0.82;;;;;;;14.27;100.00;98451.09;5043334;28;20060;-71
2022/06/07 00:51:54;;;;;;;3.83;1.02;;;;;;;14.30;100.00;98446.53;5043433;28;20040;-71
2022/06/07 00:54:24;;;;;;;1.77;1.00;;;;;;;14.30;100.00;98446.53;5045186;28;20049;-71
2022/06/07 00:56:50;;;;;;;2.40;1.10;;;;;;;14.36;100.00;98459.53;5047258;28;20025;-71
2022/06/07 00:59:16;;;;;;;0.98;0.85;;;;;;;14.36;100.00;98456.00;5063718;28;20024;-71
2022/06/07 01:01:42;;;;;;;3.75;0.85;;;;;;;14.33;100.00;98451.69;5050919;28;20018;-71
2022/06/07 01:04:07;;;;;;;1.42;1.13;;;;;;;14.34;100.00;98448.13;5047240;28;20029;-71
2022/06/07 01:12:01;;;;;;;0.93;0.80;;;;;;;14.38;100.00;98438.28;5047146;28;20028;-71
2022/06/07 01:14:26;;;;;;;1.00;0.90;;;;;;;14.40;100.00;98447.91;5056766;28;20029;-71
2022/06/07 01:16:51;;;;;;;2.25;1.10;;;;;;;14.43;100.00;98441.66;5066507;28;20021;-71
2022/06/07 01:19:17;;;;;;;1.20;1.00;;;;;;;14.44;100.00;98435.41;5049696;28;20092;-71
2022/06/07 01:21:45;;;;;;;1.15;1.00;;;;;;;14.43;100.00;98436.34;5058393;28;20059;-71
2022/06/07 01:24:12;;;;;;;1.17;0.93;;;;;;;14.34;100.00;98442.00;5054334;28;20088;-71
2022/06/07 01:26:38;;;;;;;1.40;0.90;;;;;;;14.34;100.00;98426.94;5062511;28;20216;-71
2022/06/07 01:29:03;;;;;;;2.13;0.90;;;;;;;14.40;100.00;98433.81;5050815;28;20036;-71
2022/06/07 01:31:29;;;;;;;3.22;0.82;;;;;;;14.45;100.00;98431.84;5051096;28;20029;-71
2022/06/07 01:33:54;;;;;;;3.03;1.00;;;;;;;14.41;100.00;98439.06;5046790;28;20029;-71
2022/06/07 01:36:19;;;;;;;1.40;0.70;;;;;;;14.46;100.00;98433.59;5053604;28;20017;-71
2022/06/07 01:41:53;;;;;;;1.95;1.00;;;;;;;14.50;100.00;98437.84;5062349;28;20024;-71
2022/06/07 01:44:15;;;;;;;1.10;1.00;;;;;;;14.50;100.00;98437.84;5046565;28;20078;-71
2022/06/07 01:46:41;;;;;;;1.55;1.10;;;;;;;14.52;100.00;98435.97;5046509;28;20053;-71
2022/06/07 01:49:06;;;;;;;2.30;1.40;;;;;;;14.55;100.00;98435.88;5049741;28;20049;-71
2022/06/07 01:51:31;;;;;;;0.90;0.80;;;;;;;14.58;100.00;98438.41;5065837;28;20033;-71
2022/06/07 01:53:57;;;;;;;2.42;1.30;;;;;;;14.52;100.00;98435.97;5065836;28;20024;-71
2022/06/07 01:56:23;;;;;;;1.23;0.93;;;;;;;14.51;100.00;98424.53;5064820;28;20090;-71
2022/06/07 01:58:48;;;;;;;0.82;0.80;;;;;;;14.57;100.00;98429.59;5057918;28;20244;-71
2022/06/07 02:01:14;;;;;;;1.20;0.90;;;;;;;14.55;100.00;98430.56;5060742;28;20028;-71
2022/06/07 02:03:40;;;;;;;1.15;0.80;;;;;;;14.55;100.00;98425.28;5065343;28;20024;-71
2022/06/07 02:06:09;;;;;;;2.30;0.98;;;;;;;14.54;100.00;98420.91;5054084;28;20071;-71
2022/06/07 02:08:36;;;;;;;1.20;0.90;;;;;;;14.47;100.00;98427.38;5056702;28;20232;-71
2022/06/07 02:11:11;;;;;;;1.10;0.88;;;;;;;14.45;100.00;98418.59;5065471;28;20032;-71
2022/06/07 02:13:36;;;;;;;1.52;0.85;;;;;;;14.44;100.00;98419.53;5058434;28;20025;-71
2022/06/07 02:16:02;;;;;;;1.80;1.20;;;;;;;14.37;100.00;98423.34;5064982;28;20020;-71
2022/06/07 02:18:27;;;;;;;1.88;1.30;;;;;;;14.39;100.00;98424.13;5055869;28;20025;-71
2022/06/07 02:20:57;;;;;;;1.58;1.00;;;;;;;14.38;100.00;98409.16;5045964;28;20091;-71
2022/06/07 02:23:24;;;;;;;2.35;1.10;;;;;;;14.34;100.00;98399.63;5062477;28;20016;-71
2022/06/07 02:25:55;;;;;;;0.77;0.60;;;;;;;14.30;100.00;98411.25;5046007;28;20053;-71
2022/06/07 02:28:24;;;;;;;5.15;0.90;;;;;;;14.23;100.00;98407.09;5053622;28;20028;-71
2022/06/07 02:30:52;;;;;;;2.72;1.42;;;;;;;14.20;100.00;98401.88;5051958;28;20129;-71
2022/06/07 02:33:18;;;;;;;1.55;1.13;;;;;;;14.11;100.00;98410.19;5046677;28;20092;-71
2022/06/07 02:35:44;;;;;;;3.25;0.88;;;;;;;14.06;100.00;98398.88;5061024;28;20235;-71
2022/06/07 02:38:09;;;;;;;6.47;1.13;;;;;;;14.03;100.00;98404.28;5056833;28;20025;-71
2022/06/07 02:40:35;;;;;;;6.00;1.15;;;;;;;14.02;100.00;98402.56;5064473;28;20036;-71
2022/06/07 02:43:02;;;;;;;1.20;1.10;;;;;;;14.05;100.00;98402.47;5064849;28;20013;-71
2022/06/07 02:45:29;;;;;;;2.90;1.35;;;;;;;14.01;100.00;98401.69;5063563;28;20074;-71
2022/06/07 02:47:54;;;;;;;0.63;0.63;;;;;;;13.99;100.00;98400.03;5046249;28;20037;-71
2022/06/07 02:50:20;;;;;;;2.40;1.23;;;;;;;13.94;100.00;98394.91;5045119;28;20041;-71
2022/06/07 02:52:46;;;;;;;1.88;1.13;;;;;;;13.89;100.00;98396.00;5063716;28;20020;-71
2022/06/07 02:55:12;;;;;;;1.10;1.00;;;;;;;13.84;100.00;98403.22;5057120;28;20036;-71
2022/06/07 02:57:38;;;;;;;0.93;0.88;;;;;;;13.88;100.00;98399.56;5046311;28;20056;-71
2022/06/07 03:00:06;;;;;;;4.00;1.38;;;;;;;13.86;100.00;98396.13;5050627;28;20024;-71
2022/06/07 03:02:32;;;;;;;2.78;0.90;;;;;;;13.81;100.00;98392.75;5059444;28;20025;-71
2022/06/07 03:04:57;;;;;;;1.88;1.20;;;;;;;13.74;100.00;98397.44;5045071;28;20025;-71
2022/06/07 03:07:23;;;;;;;1.55;1.23;;;;;;;13.73;100.00;98394.84;5058203;28;20021;-71
2022/06/07 03:09:48;;;;;;;3.40;1.05;;;;;;;13.67;100.00;98405.63;5053525;28;20025;-71
2022/06/07 03:12:13;;;;;;;2.72;1.00;;;;;;;13.71;100.00;98391.38;5044764;28;20087;-71
2022/06/07 03:14:39;;;;;;;10.13;1.45;;;;;;;13.70;100.00;98405.53;5044832;28;20032;-71
2022/06/07 03:17:06;;;;;;;2.17;1.10;;;;;;;13.69;100.00;98403.78;5059920;28;20036;-71
2022/06/07 03:19:32;;;;;;;4.65;1.25;;;;;;;13.68;100.00;98404.69;5060872;28;20024;-71
2022/06/07 03:21:57;;;;;;;1.33;1.02;;;;;;;13.70;100.00;98405.53;5057255;28;20025;-71
2022/06/07 03:24:25;;;;;;;1.65;1.17;;;;;;;13.74;100.00;98407.13;5044702;28;20027;-71
2022/06/07 03:26:51;;;;;;;2.65;1.50;;;;;;;13.73;100.00;98410.69;5056670;28;20062;-71
2022/06/07 03:29:16;;;;;;;5.53;1.23;;;;;;;13.70;100.00;98406.34;5062877;28;20028;-71
2022/06/07 03:31:41;;;;;;;5.97;1.20;;;;;;;13.74;100.00;98412.41;5063787;28;20021;-71
2022/06/07 03:34:07;;;;;;;6.95;1.60;;;;;;;13.74;100.00;98409.78;5062498;28;20359;-71
2022/06/07 03:36:32;;;;;;;1.15;0.93;;;;;;;13.75;100.00;98408.84;5063967;28;20040;-71
2022/06/07 03:39:00;;;;;;;1.13;1.02;;;;;;;13.72;100.00;98406.31;5060168;28;20031;-71
2022/06/07 03:41:27;;;;;;;1.88;1.15;;;;;;;13.69;100.00;98414.34;5064113;28;20044;-71
2022/06/07 03:43:53;;;;;;;2.40;1.10;;;;;;;13.63;100.00;98419.84;5063845;28;20051;-71
2022/06/07 03:46:22;;;;;;;1.45;1.10;;;;;;;13.63;100.00;98415.44;5055897;28;20032;-71
2022/06/07 03:48:48;;;;;;;1.80;1.27;;;;;;;13.57;100.00;98420.09;5047198;28;20025;-70
2022/06/07 03:51:15;;;;;;;1.35;1.10;;;;;;;13.54;100.00;98414.91;5048975;28;20043;-70
2022/06/07 03:53:42;;;;;;;1.55;1.10;;;;;;;13.50;100.00;98414.13;5047679;28;20049;-71
2022/06/07 03:56:08;;;;;;;5.25;1.40;;;;;;;13.51;100.00;98420.28;5046741;28;20028;-71
2022/06/07 03:58:34;;;;;;;2.83;1.20;;;;;;;13.50;100.00;98423.84;5046562;28;20033;-71
2022/06/07 04:01:01;;;;;;;3.92;1.45;;;;;;;13.53;100.00;98429.03;5055459;28;20029;-71
2022/06/07 04:03:28;;;;;;;2.90;1.08;;;;;;;13.53;100.00;98423.72;5063936;28;20089;-71
2022/06/07 04:05:54;;;;;;;1.00;0.90;;;;;;;13.60;100.00;98426.13;5063310;28;20025;-71
2022/06/07 04:08:20;;;;;;;2.22;1.05;;;;;;;13.66;100.00;98423.25;5064122;28;20329;-71
2022/06/07 04:10:45;;;;;;;1.13;1.00;;;;;;;13.73;100.00;98418.63;5064117;28;20194;-71
2022/06/07 04:13:12;;;;;;;2.92;1.50;;;;;;;13.83;100.00;98420.03;5064124;28;20028;-71
2022/06/07 04:15:37;;;;;;;3.28;1.27;;;;;;;13.92;100.00;98415.25;5063989;28;20080;-71
2022/06/07 04:18:03;;;;;;;6.63;1.20;;;;;;;13.97;100.00;98412.44;5064060;28;20028;-71
2022/06/07 04:20:28;;;;;;;1.77;1.30;;;;;;;14.06;100.00;98414.78;5064057;28;20028;-71
2022/06/07 04:22:54;;;;;;;2.88;1.27;;;;;;;14.10;100.00;98417.25;5064134;28;20027;-71
2022/06/07 04:25:19;;;;;;;2.05;1.27;;;;;;;14.13;100.00;98421.56;5064053;28;20107;-71
2022/06/07 04:27:45;;;;;;;3.63;1.23;;;;;;;14.19;100.00;98426.63;5063858;28;20084;-71
2022/06/07 04:30:11;;;;;;;2.15;1.50;;;;;;;14.28;100.00;98426.31;5067139;28;20021;-71
2022/06/07 04:32:36;;;;;;;2.15;1.45;;;;;;;14.59;100.00;98426.91;5067786;28;20396;-71
2022/06/07 04:35:02;;;;;;;2.60;1.20;;;;;;;14.98;99.85;98435.94;5067844;28;20020;-71
2022/06/07 04:37:27;;;;;;;1.33;1.20;;;;;;;15.40;97.76;98433.38;5067856;28;20339;-71
2022/06/07 04:39:54;;;;;;;1.20;1.10;;;;;;;16.20;93.29;98428.88;5067783;28;20091;-71
2022/06/07 04:42:19;;;;;;;4.63;1.40;;;;;;;16.90;88.78;98435.34;5068077;28;20020;-71
2022/06/07 04:44:48;;;;;;;1.40;1.20;;;;;;;17.51;86.09;98441.25;5067900;28;20070;-71
2022/06/07 04:47:14;;;;;;;1.05;0.90;;;;;;;17.28;85.99;98439.69;5068150;28;20213;-71
2022/06/07 04:49:39;;;;;;;1.38;1.00;;;;;;;17.46;85.00;98437.09;5067548;28;20025;-71
2022/06/07 04:52:05;;;;;;;5.45;1.08;;;;;;;17.73;85.03;98446.34;5067793;28;20343;-71
2022/06/07 04:54:30;;;;;;;1.45;1.00;;;;;;;18.21;83.09;98438.47;5067979;28;20126;-71
2022/06/07 04:56:55;;;;;;;1.10;1.00;;;;;;;18.85;80.90;98442.06;5067690;28;20213;-71
2022/06/07 04:59:21;;;;;;;1.85;1.00;;;;;;;19.34;79.83;98450.88;5067959;28;20320;-71
2022/06/07 05:01:46;;;;;;;2.05;0.95;;;;;;;19.21;78.84;98453.38;5067631;28;20025;-71
2022/06/07 05:04:11;;;;;;;1.27;1.00;;;;;;;19.50;78.52;98459.72;5067693;28;20024;-71
2022/06/07 05:06:40;;;;;;;3.15;1.00;;;;;;;19.02;78.37;98458.88;5067755;28;20317;-71
2022/06/07 05:09:17;;;;;;;1.98;1.15;;;;;;;18.57;79.93;98457.88;5067606;28;20202;-71
2022/06/07 05:11:46;;;;;;;0.82;0.82;;;;;;;18.11;81.67;98454.09;5067518;28;20045;-71
2022/06/07 05:14:11;;;;;;;3.40;1.05;;;;;;;17.62;84.84;98456.69;5067231;28;20045;-71
2022/06/07 05:16:39;;;;;;;2.25;1.13;;;;;;;17.40;85.46;98454.19;5067151;28;20039;-71
2022/06/07 05:19:05;;;;;;;1.88;0.95;;;;;;;17.13;85.98;98459.06;5067017;28;20031;-71
2022/06/07 05:21:30;;;;;;;3.83;1.40;;;;;;;17.50;87.29;98465.28;5067464;28;20025;-71
2022/06/07 05:23:56;;;;;;;1.63;0.80;;;;;;;17.69;86.69;98455.44;5067230;28;20024;-71
2022/06/07 05:26:37;;;;;;;3.58;1.20;;;;;;;18.87;83.10;98464.19;5067463;28;20209;-71
2022/06/07 05:29:04;;;;;;;2.00;1.10;;;;;;;19.25;80.24;98468.25;5067892;28;20020;-71
2022/06/07 05:31:30;;;;;;;4.20;1.05;;;;;;;19.56;77.30;98468.25;5067350;28;20380;-71
2022/06/07 05:33:55;;;;;;;3.22;1.10;;;;;;;20.25;75.60;98471.28;5067645;28;20028;-71
2022/06/07 05:36:21;;;;;;;7.57;1.38;;;;;;;20.90;73.51;98474.25;5067180;28;20440;-71
2022/06/07 05:38:47;;;;;;;3.88;1.08;;;;;;;21.53;72.63;98473.75;5067074;28;20029;-71
2022/06/07 05:41:22;;;;;;;6.78;1.00;;;;;;;21.42;70.00;98470.94;5065850;28;20335;-71
2022/06/07 05:43:47;;;;;;;1.38;1.05;;;;;;;21.09;72.12;98472.16;5066646;28;20084;-71
2022/06/07 05:46:13;;;;;;;6.15;1.10;;;;;;;21.57;70.73;98464.59;5066669;28;20028;-71
2022/06/07 05:48:38;;;;;;;1.85;0.77;;;;;;;21.33;71.41;98478.59;5066749;28;20024;-71
2022/06/07 05:51:04;;;;;;;2.95;1.25;;;;;;;20.79;72.84;98476.72;5066796;28;20341;-71
2022/06/07 05:53:30;;;;;;;4.20;1.20;;;;;;;20.33;73.29;98472.53;5066927;28;20029;-71
2022/06/07 05:55:56;;;;;;;5.28;1.00;;;;;;;19.87;74.43;98467.31;5067052;28;20206;-71
2022/06/07 05:58:23;;;;;;;4.80;1.10;;;;;;;19.63;75.91;98469.63;5067033;28;20302;-71
2022/06/07 06:00:48;;;;;;;4.03;1.40;;;;;;;19.20;77.21;98464.97;5067035;28;20017;-71
2022/06/07 06:03:14;;;;;;;5.20;1.50;;;;;;;18.90;78.66;98466.69;5066591;28;20272;-71
2022/06/07 06:05:46;;;;;;;2.70;1.33;;;;;;;18.82;79.67;98466.25;5066642;28;20221;-71
2022/06/07 06:11:07;;;;;;;2.00;1.35;;;;;;;18.76;80.38;98475.44;5066620;28;20216;-71
2022/06/07 06:13:35;;;;;;;2.20;1.00;;;;;;;18.77;80.58;98466.50;5066713;28;20052;-71
2022/06/07 06:16:06;;;;;;;1.10;1.00;;;;;;;18.58;81.20;98471.09;5066818;28;20020;-71
2022/06/07 06:18:32;;;;;;;2.67;1.30;;;;;;;18.45;81.84;98469.19;5066476;28;20024;-71
2022/06/07 06:20:57;;;;;;;1.88;1.40;;;;;;;18.52;82.91;98470.59;5066645;28;20028;-71
2022/06/07 06:23:23;;;;;;;2.88;1.48;;;;;;;18.61;81.90;98472.75;5066280;28;20020;-71
2022/06/07 06:25:49;;;;;;;3.80;1.52;;;;;;;18.55;81.88;98478.41;5066008;28;20123;-71
2022/06/07 06:28:14;;;;;;;3.42;1.73;;;;;;;18.53;82.63;98481.16;5065770;28;20220;-71
2022/06/07 06:30:44;;;;;;;2.22;1.10;;;;;;;18.52;82.66;98481.25;5066335;28;20025;-71
2022/06/07 06:33:12;;;;;;;1.58;1.13;;;;;;;18.30;82.47;98480.63;5066351;28;20316;-71
2022/06/07 06:35:38;;;;;;;3.42;1.45;;;;;;;18.38;82.80;98478.47;5066383;28;20309;-71
2022/06/07 06:38:04;;;;;;;2.30;1.45;;;;;;;18.40;83.25;98477.44;5066057;28;20024;-71
2022/06/07 06:40:29;;;;;;;2.85;1.40;;;;;;;18.60;82.21;98479.00;5065790;28;20025;-71
2022/06/07 06:42:54;;;;;;;1.48;1.23;;;;;;;18.63;83.08;98478.84;5065710;28;20052;-71
2022/06/07 06:45:20;;;;;;;6.47;1.60;;;;;;;18.64;81.54;98486.78;5065928;28;20063;-71
2022/06/07 06:47:45;;;;;;;3.35;1.50;;;;;;;18.71;83.01;98484.66;5065737;28;20025;-71
2022/06/07 06:50:11;;;;;;;1.80;1.33;;;;;;;18.47;80.46;98475.28;5065968;28;20041;-71
2022/06/07 06:52:36;;;;;;;3.70;1.52;;;;;;;18.57;80.32;98479.22;5065422;28;20190;-71
2022/06/07 06:55:03;;;;;;;3.42;1.30;;;;;;;18.45;81.51;98490.53;5065683;28;20032;-71
2022/06/07 06:57:28;;;;;;;5.78;1.38;;;;;;;18.35;81.13;98478.59;5065563;28;20024;-71
2022/06/07 06:59:53;;;;;;;3.33;1.70;;;;;;;18.37;81.69;98476.72;5065261;28;20024;-71
2022/06/07 07:02:19;;;;;;;2.50;1.30;;;;;;;18.42;82.49;98485.34;5065338;28;20025;-71
2022/06/07 07:04:45;;;;;;;2.95;1.30;;;;;;;18.38;81.52;98483.78;5065472;28;20102;-71
2022/06/07 07:07:10;;;;;;;3.08;1.52;;;;;;;18.44;83.88;98489.66;5065321;28;20052;-71
2022/06/07 07:09:36;;;;;;;3.20;1.20;;;;;;;18.45;83.61;98485.19;5065146;28;20025;-71
2022/06/07 07:12:01;;;;;;;1.33;1.13;;;;;;;18.54;82.77;98490.03;5065586;28;20017;-71
2022/06/07 07:14:28;;;;;;;2.00;1.15;;;;;;;18.47;80.84;98484.16;5065439;28;20021;-71
2022/06/07 07:16:53;;;;;;;1.98;1.25;;;;;;;18.47;81.62;98488.63;5065026;28;20013;-71
2022/06/07 07:19:20;;;;;;;4.13;1.30;;;;;;;18.55;80.33;98486.41;5065274;28;20028;-71
2022/06/07 07:21:47;;;;;;;5.32;1.40;;;;;;;18.60;81.66;98489.69;5064819;28;20031;-71
2022/06/07 07:24:20;;;;;;;1.08;0.98;;;;;;;18.55;80.75;98491.75;5064808;28;20033;-71
2022/06/07 07:26:47;;;;;;;3.28;1.27;;;;;;;18.74;80.16;98488.03;5065207;28;20309;-71
2022/06/07 07:29:14;;;;;;;4.78;1.20;;;;;;;18.87;80.48;98489.06;5064918;28;20017;-71
2022/06/07 07:31:40;;;;;;;1.02;0.93;;;;;;;19.02;77.49;98479.38;5065000;28;20040;-71
2022/06/07 07:34:08;;;;;;;1.77;1.10;;;;;;;19.02;77.67;98479.38;5065334;28;20251;-71
2022/06/07 07:36:36;;;;;;;1.65;1.00;;;;;;;19.18;78.74;98485.56;5064828;28;20051;-71
2022/06/07 07:39:01;;;;;;;3.17;1.02;;;;;;;19.44;75.81;98479.63;5064865;28;20324;-71
2022/06/07 07:41:32;;;;;;;2.90;1.20;;;;;;;20.30;75.72;98480.72;5064837;28;20023;-71
2022/06/07 07:43:59;;;;;;;2.40;1.42;;;;;;;20.80;74.00;98489.19;5064777;28;20048;-71
2022/06/07 07:46:28;;;;;;;1.60;1.50;;;;;;;20.86;71.38;98482.56;5064857;28;20024;-71
2022/06/07 07:48:54;;;;;;;1.42;1.10;;;;;;;20.97;73.98;98490.81;5065175;28;20035;-71
2022/06/07 07:51:23;;;;;;;2.72;1.35;;;;;;;21.28;72.04;98486.09;5064678;28;20100;-71
2022/06/07 07:53:53;;;;;;;6.13;1.30;;;;;;;21.09;70.84;98485.53;5064960;28;20020;-71
2022/06/07 07:56:19;;;;;;;3.58;0.95;;;;;;;21.12;69.91;98482.69;5064525;28;20074;-71
2022/06/07 07:58:45;;;;;;;2.80;1.10;;;;;;;21.64;68.93;98476.59;5064700;28;20025;-71
2022/06/07 08:01:14;;;;;;;2.75;0.95;;;;;;;21.85;67.61;98480.56;5064779;28;20088;-71
2022/06/07 08:03:40;;;;;;;1.77;1.17;;;;;;;21.93;68.92;98470.19;5063596;28;20028;-71
2022/06/07 08:06:07;;;;;;;2.08;1.02;;;;;;;22.00;67.68;98468.81;5064193;28;20032;-71
2022/06/07 08:08:33;;;;;;;4.75;1.10;;;;;;;22.05;68.01;98472.06;5064203;28;20225;-71
2022/06/07 08:10:58;;;;;;;1.75;1.00;;;;;;;22.01;66.60;98465.16;5064103;28;20049;-71
2022/06/07 08:13:24;;;;;;;1.50;0.90;;;;;;;22.66;64.47;98466.88;5063962;28;20402;-71
2022/06/07 08:15:49;;;;;;;2.97;1.02;;;;;;;22.62;63.40;98462.69;5064233;28;20025;-71
2022/06/07 08:18:14;;;;;;;3.55;1.10;;;;;;;22.62;65.60;98468.06;5063954;28;20016;-71
2022/06/07 08:20:40;;;;;;;1.85;1.25;;;;;;;22.65;66.09;98462.47;5063867;28;20067;-71
2022/06/07 08:23:07;;;;;;;3.20;1.13;;;;;;;22.32;65.05;98454.94;5064050;28;20025;-71
2022/06/07 08:25:33;;;;;;;4.00;1.35;;;;;;;22.21;65.89;98451.28;5064155;28;20020;-71
2022/06/07 08:27:58;;;;;;;2.05;1.08;;;;;;;22.54;67.67;98459.66;5063982;28;20049;-71
2022/06/07 08:30:24;;;;;;;1.23;0.85;;;;;;;22.43;65.79;98455.03;5063762;28;20276;-71
2022/06/07 08:32:49;;;;;;;2.05;0.90;;;;;;;22.73;65.99;98457.41;5063691;28;20036;-71
2022/06/07 08:38:01;;;;;;;8.13;1.10;;;;;;;23.69;62.43;98452.97;5063694;28;20392;-71
2022/06/07 08:40:37;;;;;;;1.77;0.75;;;;;;;24.03;62.85;98451.31;5063845;28;20084;-71
2022/06/07 08:43:23;;;;;;;1.67;1.00;;;;;;;24.43;59.48;98445.41;5064155;28;20082;-71
2022/06/07 08:45:49;;;;;;;3.03;0.85;;;;;;;25.00;58.24;98456.16;5063886;28;20061;-71
2022/06/07 08:48:20;;;;;;;3.58;1.10;;;;;;;25.85;54.49;98450.00;5063911;28;20032;-71
2022/06/07 08:51:06;;;;;;;2.88;1.02;;;;;;;26.60;53.64;98448.84;5063841;28;20120;-71
2022/06/07 08:53:37;;;;;;;1.20;0.93;;;;;;;26.82;53.24;98443.31;5064040;28;20024;-71
2022/06/07 08:56:09;;;;;;;1.77;1.00;;;;;;;26.49;52.82;98443.56;5063778;28;20050;-71
2022/06/07 08:58:38;;;;;;;1.38;0.95;;;;;;;26.34;52.35;98442.16;5063877;28;20028;-72
2022/06/07 09:01:42;;;;;;;3.90;1.00;;;;;;;26.03;53.14;98430.44;5063720;28;20024;-72
2022/06/07 09:04:36;;;;;;;4.97;0.90;;;;;;;25.89;56.22;98435.25;5062952;28;20033;-72
2022/06/07 09:07:14;;;;;;;1.38;1.00;;;;;;;24.80;54.45;98428.13;5063702;28;20029;-72
2022/06/07 09:12:32;;;;;;;2.13;1.10;;;;;;;23.55;58.82;98423.59;5063582;28;20048;-72
2022/06/07 09:15:09;;;;;;;1.88;0.77;;;;;;;24.59;58.49;98432.50;5063655;28;20071;-72
2022/06/07 09:17:57;;;;;;;1.70;0.82;;;;;;;25.30;55.32;98432.97;5067300;28;20080;-72
2022/06/07 09:20:35;;;;;;;5.50;1.17;;;;;;;26.44;54.22;98426.88;5067329;28;20081;-72
2022/06/07 09:23:10;;;;;;;3.65;0.95;;;;;;;25.33;53.58;98421.09;5067126;28;20083;-72
2022/06/07 09:25:40;;;;;;;2.45;0.95;;;;;;;24.24;55.69;98423.66;5067085;28;20048;-72
2022/06/07 09:28:12;;;;;;;1.38;0.90;;;;;;;24.10;57.52;98426.53;5066860;28;20022;-72
2022/06/07 09:30:38;;;;;;;;;;;;;;;23.57;60.48;98416.25;5067532;28;20052;-72
2022/06/07 09:33:25;;;;;;;1.35;0.82;;;;;;;23.49;60.25;98423.19;5066747;28;19912;-72
2022/06/07 09:35:54;;;;;;;2.45;1.23;;;;;;;23.80;60.20;98428.84;5066752;28;20028;-72
2022/06/07 09:38:31;;;;;;;3.78;1.20;;;;;;;23.66;58.69;98420.13;5066610;28;20025;-72
2022/06/07 09:41:05;;;;;;;2.10;1.05;;;;;;;22.94;60.42;98421.00;5066730;28;20052;-72
2022/06/07 09:43:41;;;;;;;1.05;0.93;;;;;;;22.92;61.15;98428.28;5066755;28;20372;-72
2022/06/07 09:46:09;;;;;;;3.15;1.40;;;;;;;22.65;61.49;98427.59;5066590;28;20016;-72
2022/06/07 09:48:42;;;;;;;2.55;1.13;;;;;;;22.34;64.08;98431.53;5066408;28;20088;-72
2022/06/07 09:51:25;;;;;;;1.42;0.88;;;;;;;22.33;65.15;98426.25;5066307;28;20340;-72
2022/06/07 09:54:24;;;;;;;3.28;0.82;;;;;;;22.33;64.44;98420.91;5066368;28;20062;-72
2022/06/07 09:57:16;;;;;;;1.42;0.90;;;;;;;22.54;62.71;98420.31;5054507;28;20039;-72
2022/06/07 10:00:19;;;;;;;1.00;0.88;;;;;;;22.64;65.22;98424.03;5066536;28;20025;-72
2022/06/07 10:02:54;;;;;;;1.45;0.90;;;;;;;22.81;64.20;98422.84;5058411;28;20096;-72
2022/06/07 10:05:57;;;;;;;3.08;1.10;;;;;;;22.63;63.40;98416.97;5066071;28;20098;-72
2022/06/07 10:08:39;;;;;;;0.95;0.85;;;;;;;22.49;64.92;98414.38;5055172;28;20052;-72
2022/06/07 10:11:10;;;;;;;1.23;0.87;;;;;;;22.46;63.28;98413.75;5066307;28;20212;-72
2022/06/07 10:13:44;;;;;;;1.40;0.80;;;;;;;22.25;62.80;98409.88;5066031;28;20056;-72
2022/06/07 10:16:17;;;;;;;4.13;1.20;;;;;;;21.99;65.56;98408.13;5065881;28;20036;-72
2022/06/07 10:19:01;;;;;;;2.72;1.00;;;;;;;22.14;65.39;98407.06;5065898;28;20017;-72
2022/06/07 10:22:04;;;;;;;1.35;0.82;;;;;;;22.22;65.29;98404.72;5066104;28;20025;-72
2022/06/07 10:24:47;;;;;;;1.05;0.75;;;;;;;22.30;63.58;98403.22;5065640;28;20029;-72
2022/06/07 10:27:22;;;;;;;3.38;0.93;;;;;;;22.38;66.36;98405.34;5065211;28;20317;-72
2022/06/07 10:30:26;;;;;;;2.25;0.98;;;;;;;22.05;62.94;98402.34;5065751;28;20032;-72
2022/06/07 10:33:29;;;;;;;1.55;1.02;;;;;;;22.29;65.07;98397.94;5066004;28;20032;-72
2022/06/07 10:36:03;;;;;;;1.73;0.93;;;;;;;22.58;64.70;98392.28;5060795;28;20101;-72
2022/06/07 10:39:03;;;;;;;2.35;1.00;;;;;;;22.74;63.26;98387.53;5065600;28;20036;-72
2022/06/07 10:41:58;;;;;;;1.60;0.80;;;;;;;23.39;62.94;98385.41;5062373;28;20044;-72
2022/06/07 10:44:39;;;;;;;3.55;0.90;;;;;;;23.74;62.35;98383.63;5064187;28;20028;-72
2022/06/07 10:47:23;;;;;;;1.40;0.90;;;;;;;23.39;61.73;98380.03;5065327;28;20095;-72
2022/06/07 10:50:21;;;;;;;1.55;1.00;;;;;;;23.19;63.02;98383.31;5065111;28;20043;-72
2022/06/07 10:53:00;;;;;;;1.50;1.08;;;;;;;22.99;63.34;98381.25;5065143;28;20051;-72
2022/06/07 10:55:33;;;;;;;1.08;0.70;;;;;;;23.15;62.47;98371.09;5065269;28;20024;-72
2022/06/07 10:58:38;;;;;;;2.17;1.10;;;;;;;23.23;62.07;98379.47;5065147;28;20045;-72
2022/06/07 11:01:22;;;;;;;7.00;1.00;;;;;;;23.41;61.55;98378.09;5064987;28;20028;-72
2022/06/07 11:04:00;;;;;;;2.92;0.90;;;;;;;23.65;61.42;98375.38;5064919;28;20028;-72
2022/06/07 11:09:44;;;;;;;5.45;0.88;;;;;;;23.49;60.15;98354.19;5064997;28;20075;-72
2022/06/07 11:12:19;;;;;;;1.65;0.82;;;;;;;23.91;58.43;98358.97;5064796;28;20028;-72
2022/06/07 11:15:03;;;;;;;4.70;1.02;;;;;;;24.23;61.32;98359.22;5064910;28;20075;-72
2022/06/07 11:17:39;;;;;;;2.05;0.63;;;;;;;24.20;57.43;98354.91;5064783;28;20024;-72
2022/06/07 11:20:17;;;;;;;1.80;1.00;;;;;;;24.21;58.43;98351.25;5064995;28;20020;-72
2022/06/07 11:22:54;;;;;;;1.80;0.70;;;;;;;23.82;57.14;98350.78;5064870;28;20027;-72
2022/06/07 11:25:41;;;;;;;3.13;1.17;;;;;;;24.31;57.54;98354.94;5064602;28;20096;-72
2022/06/07 11:28:33;;;;;;;2.17;0.70;;;;;;;24.82;56.89;98350.78;5064479;28;20025;-72
2022/06/07 11:31:22;;;;;;;;;;;;;;;24.85;57.62;98355.94;5065026;28;20028;-72
2022/06/07 11:33:47;;;;;;;2.35;0.80;;;;;;;24.47;58.42;98344.66;5058950;28;19958;-72
2022/06/07 11:36:13;;;;;;;1.33;0.70;;;;;;;24.54;56.43;98342.31;5064457;28;20028;-72
2022/06/07 11:38:53;;;;;;;0.90;0.60;;;;;;;24.24;57.26;98342.94;5063614;28;20225;-72
2022/06/07 11:41:36;;;;;;;1.95;0.80;;;;;;;24.38;55.93;98334.63;5064247;28;20101;-72
2022/06/07 11:44:12;;;;;;;1.83;0.70;;;;;;;24.24;59.05;98326.81;5064322;28;20118;-72
2022/06/07 11:46:57;;;;;;;1.60;0.85;;;;;;;24.31;59.31;98337.91;5064201;28;20088;-72
2022/06/07 11:49:23;;;;;;;2.85;0.90;;;;;;;24.36;57.11;98330.34;5064140;28;20020;-72
2022/06/07 11:52:13;;;;;;;4.25;1.13;;;;;;;23.83;57.06;98326.47;5063870;28;20083;-72
2022/06/07 11:54:38;;;;;;;1.00;0.70;;;;;;;24.08;60.07;98337.03;5064369;28;20032;-72
2022/06/07 11:57:38;;;;;;;1.35;0.70;;;;;;;24.14;59.56;98324.97;5064186;28;20017;-72
2022/06/07 12:00:22;;;;;;;4.63;1.13;;;;;;;23.94;58.11;98329.19;5064000;28;20020;-72
2022/06/07 12:02:54;;;;;;;1.15;0.88;;;;;;;24.00;59.10;98328.72;5063955;28;20025;-72
2022/06/07 12:05:28;;;;;;;3.08;0.80;;;;;;;24.14;59.81;98325.78;5064011;28;20021;-72